createdAt,value
2023-03-31T00:00:28.105Z,3.10
2023-03-31T00:02:56.239Z,3.13
2023-03-31T00:05:24.720Z,3.42
2023-03-31T00:07:52.287Z,3.80
2023-03-31T00:10:19.533Z,3.28
2023-03-31T00:12:46.572Z,3.50
2023-03-31T00:15:13.366Z,3.30
2023-03-31T00:17:40.289Z,3.08
2023-03-31T00:20:12.521Z,3.13
2023-03-31T00:22:42.372Z,2.85
2023-03-31T00:25:09.738Z,3.78
2023-03-31T00:27:36.476Z,2.70
2023-03-31T00:30:03.195Z,3.08
2023-03-31T00:32:29.930Z,3.50
2023-03-31T00:34:56.692Z,3.30
2023-03-31T00:37:24.897Z,3.15
2023-03-31T00:39:51.592Z,2.90
2023-03-31T00:42:18.376Z,2.83
2023-03-31T00:44:45.754Z,3.28
2023-03-31T00:47:12.526Z,2.85
2023-03-31T00:49:40.748Z,3.22
2023-03-31T00:52:07.780Z,2.63
2023-03-31T00:54:34.568Z,2.92
2023-03-31T00:57:03.688Z,2.58
2023-03-31T00:59:30.530Z,2.42
2023-03-31T01:01:59.330Z,3.15
2023-03-31T01:04:26.532Z,2.67
2023-03-31T01:06:57.374Z,3.25
2023-03-31T01:09:24.996Z,2.47
2023-03-31T01:11:52.383Z,2.30
2023-03-31T01:14:19.269Z,2.72
2023-03-31T01:16:46.074Z,2.40
2023-03-31T01:19:12.945Z,2.60
2023-03-31T01:21:39.690Z,2.58
2023-03-31T01:24:06.517Z,2.60
2023-03-31T01:26:33.261Z,2.20
2023-03-31T01:29:00.033Z,2.10
2023-03-31T01:31:27.173Z,2.45
2023-03-31T01:33:54.039Z,2.38
2023-03-31T01:36:21.213Z,1.98
2023-03-31T01:38:47.974Z,1.80
2023-03-31T01:41:14.706Z,1.92
2023-03-31T01:43:41.461Z,2.00
2023-03-31T01:46:09.003Z,1.92
2023-03-31T01:48:36.767Z,2.20
2023-03-31T01:51:03.515Z,2.45
2023-03-31T01:53:30.331Z,3.10
2023-03-31T01:55:57.153Z,3.10
2023-03-31T01:58:23.929Z,3.15
2023-03-31T02:00:56.909Z,3.28
2023-03-31T02:03:23.820Z,3.40
2023-03-31T02:05:51.723Z,3.67
2023-03-31T02:08:18.433Z,3.53
2023-03-31T02:10:45.195Z,2.78
2023-03-31T02:13:11.979Z,2.88
2023-03-31T02:15:42.048Z,3.17
2023-03-31T02:18:11.525Z,3.00
2023-03-31T02:20:42.111Z,3.97
2023-03-31T02:23:08.929Z,3.20
2023-03-31T02:25:35.675Z,3.30
2023-03-31T02:28:02.811Z,3.17
2023-03-31T02:30:29.521Z,3.60
2023-03-31T02:32:56.581Z,3.15
2023-03-31T02:35:25.221Z,3.50
2023-03-31T02:37:52.551Z,3.92
2023-03-31T02:40:19.321Z,3.35
2023-03-31T02:42:46.188Z,2.60
2023-03-31T02:45:12.878Z,2.53
2023-03-31T02:47:40.184Z,2.67
2023-03-31T02:50:08.256Z,3.25
2023-03-31T02:52:35.062Z,3.60
2023-03-31T02:55:01.815Z,3.95
2023-03-31T02:57:28.777Z,4.70
2023-03-31T02:59:55.684Z,4.50
2023-03-31T03:02:22.506Z,5.35
2023-03-31T03:04:49.764Z,5.28
2023-03-31T03:07:16.572Z,5.80
2023-03-31T03:09:43.893Z,6.05
2023-03-31T03:12:10.683Z,7.72
2023-03-31T03:14:37.515Z,6.63
2023-03-31T03:17:04.294Z,6.38
2023-03-31T03:19:31.130Z,6.65
2023-03-31T03:21:57.837Z,6.93
2023-03-31T03:24:29.290Z,7.72
2023-03-31T03:26:56.225Z,6.22
2023-03-31T03:29:22.957Z,7.68
2023-03-31T03:31:49.708Z,6.65
2023-03-31T03:34:16.559Z,6.60
2023-03-31T03:36:43.310Z,5.75
2023-03-31T03:39:09.976Z,6.05
2023-03-31T03:41:36.758Z,5.93
2023-03-31T03:44:03.466Z,5.25
2023-03-31T03:46:30.407Z,6.43
2023-03-31T03:48:57.186Z,4.78
2023-03-31T03:51:23.918Z,5.47
2023-03-31T03:53:50.664Z,4.68
2023-03-31T03:56:17.380Z,4.70
2023-03-31T03:58:44.043Z,4.57
2023-03-31T04:01:10.827Z,5.18
2023-03-31T04:03:37.522Z,5.85
2023-03-31T04:06:04.509Z,5.45
2023-03-31T04:08:31.450Z,6.40
2023-03-31T04:10:58.194Z,5.55
2023-03-31T04:13:24.928Z,6.40
2023-03-31T04:15:51.736Z,6.00
2023-03-31T04:18:24.632Z,5.80
2023-03-31T04:21:03.871Z,5.25
2023-03-31T04:23:30.614Z,5.75
2023-03-31T04:25:57.305Z,5.45
2023-03-31T04:28:26.726Z,5.30
2023-03-31T04:30:54.905Z,5.20
2023-03-31T04:33:21.778Z,4.43
2023-03-31T04:35:52.652Z,4.15
2023-03-31T04:38:19.580Z,4.05
2023-03-31T04:40:46.245Z,3.90
2023-03-31T04:43:13.044Z,4.47
2023-03-31T04:45:39.767Z,4.10
2023-03-31T04:48:06.716Z,4.43
2023-03-31T04:50:33.390Z,3.80
2023-03-31T04:53:00.165Z,3.85
2023-03-31T04:55:27.268Z,3.28
2023-03-31T04:57:54.067Z,3.30
2023-03-31T05:00:20.717Z,2.67
2023-03-31T05:02:47.550Z,2.80
2023-03-31T05:05:14.352Z,2.85
2023-03-31T05:07:41.148Z,2.33
2023-03-31T05:10:07.798Z,2.95
2023-03-31T05:12:34.534Z,2.33
2023-03-31T05:15:01.821Z,2.75
2023-03-31T05:17:28.544Z,2.60
2023-03-31T05:19:55.238Z,2.83
2023-03-31T05:22:22.212Z,2.47
2023-03-31T05:24:48.860Z,2.45
2023-03-31T05:27:15.632Z,2.20
2023-03-31T05:29:42.276Z,1.75
2023-03-31T05:32:09.109Z,2.10
2023-03-31T05:34:36.539Z,2.00
2023-03-31T05:37:03.413Z,2.60
2023-03-31T05:39:33.038Z,2.83
2023-03-31T05:41:59.807Z,2.95
2023-03-31T05:44:27.384Z,4.10
2023-03-31T05:46:54.076Z,3.42
2023-03-31T05:49:20.789Z,5.30
2023-03-31T05:51:47.957Z,3.58
2023-03-31T05:54:14.734Z,3.85
2023-03-31T05:56:41.427Z,3.13
2023-03-31T05:59:08.202Z,3.75
2023-03-31T06:01:34.972Z,3.95
2023-03-31T06:04:01.954Z,4.07
2023-03-31T06:06:28.743Z,2.88
2023-03-31T06:08:55.464Z,3.40
2023-03-31T06:11:22.237Z,3.92
2023-03-31T06:13:48.975Z,3.70
2023-03-31T06:16:15.820Z,2.95
2023-03-31T06:18:42.685Z,3.40
2023-03-31T06:21:09.701Z,3.20
2023-03-31T06:23:36.603Z,2.90
2023-03-31T06:26:03.404Z,2.50
2023-03-31T06:28:30.134Z,3.33
2023-03-31T06:30:56.848Z,3.28
2023-03-31T06:33:23.613Z,3.28
2023-03-31T06:35:50.843Z,3.17
2023-03-31T06:38:17.591Z,3.80
2023-03-31T06:40:44.266Z,3.33
2023-03-31T06:43:10.997Z,4.10
2023-03-31T06:45:37.800Z,3.92
2023-03-31T06:48:04.589Z,4.18
2023-03-31T06:50:31.322Z,3.97
2023-03-31T06:52:58.911Z,3.75
2023-03-31T06:55:25.687Z,4.30
2023-03-31T06:57:52.506Z,4.07
2023-03-31T07:00:21.528Z,4.07
2023-03-31T07:02:49.828Z,4.93
2023-03-31T07:05:16.862Z,4.43
2023-03-31T07:07:46.229Z,4.25
2023-03-31T07:10:13.125Z,4.53
2023-03-31T07:12:39.885Z,4.40
2023-03-31T07:15:06.602Z,4.50
2023-03-31T07:17:33.950Z,4.93
2023-03-31T07:20:00.817Z,5.13
2023-03-31T07:22:27.629Z,5.32
2023-03-31T07:24:54.452Z,4.63
2023-03-31T07:27:22.439Z,5.70
2023-03-31T07:29:50.936Z,4.72
2023-03-31T07:32:17.804Z,5.07
2023-03-31T07:34:44.592Z,5.38
2023-03-31T07:37:11.312Z,5.28
2023-03-31T07:39:38.098Z,4.43
2023-03-31T07:42:04.874Z,5.18
2023-03-31T07:44:31.653Z,5.30
2023-03-31T07:46:58.611Z,4.72
2023-03-31T07:49:25.349Z,4.75
2023-03-31T07:51:52.080Z,5.80
2023-03-31T07:54:18.798Z,5.43
2023-03-31T07:56:45.555Z,4.95
2023-03-31T07:59:12.501Z,5.90
2023-03-31T08:01:39.238Z,5.57
2023-03-31T08:04:06.199Z,5.65
2023-03-31T08:06:33.030Z,6.93
2023-03-31T08:08:59.809Z,5.93
2023-03-31T08:11:26.626Z,5.95
2023-03-31T08:13:53.493Z,5.38
2023-03-31T08:16:20.459Z,5.28
2023-03-31T08:18:47.257Z,5.80
2023-03-31T08:21:13.995Z,5.05
2023-03-31T08:23:40.773Z,5.20
2023-03-31T08:26:08.204Z,5.63
2023-03-31T08:28:35.383Z,5.22
2023-03-31T08:31:02.075Z,6.57
2023-03-31T08:33:29.115Z,5.10
2023-03-31T08:35:56.130Z,5.07
2023-03-31T08:38:22.918Z,5.78
2023-03-31T08:40:49.654Z,5.40
2023-03-31T08:43:16.485Z,4.80
2023-03-31T08:45:43.366Z,4.68
2023-03-31T08:48:11.117Z,4.50
2023-03-31T08:50:37.935Z,4.68
2023-03-31T08:53:04.787Z,5.53
2023-03-31T08:55:32.473Z,6.07
2023-03-31T08:57:59.219Z,7.32
2023-03-31T09:00:26.608Z,6.38
2023-03-31T09:02:53.598Z,5.97
2023-03-31T09:05:20.324Z,4.72
2023-03-31T09:07:47.100Z,4.47
2023-03-31T09:10:13.809Z,4.53
2023-03-31T09:12:40.653Z,5.10
2023-03-31T09:15:07.429Z,4.88
2023-03-31T09:17:34.239Z,4.03
2023-03-31T09:20:01.115Z,6.00
2023-03-31T09:22:27.863Z,4.57
2023-03-31T09:24:54.543Z,6.38
2023-03-31T09:27:21.317Z,5.70
2023-03-31T09:29:48.766Z,6.10
2023-03-31T09:32:16.916Z,6.18
2023-03-31T09:34:43.931Z,6.10
2023-03-31T09:37:10.730Z,7.85
2023-03-31T09:39:38.446Z,6.22
2023-03-31T09:42:05.201Z,10.02
2023-03-31T09:44:32.153Z,7.43
2023-03-31T09:46:58.950Z,5.35
2023-03-31T09:49:25.756Z,5.07
2023-03-31T09:51:53.198Z,5.22
2023-03-31T09:54:19.928Z,5.10
2023-03-31T09:56:47.394Z,5.10
2023-03-31T09:59:14.185Z,4.60
2023-03-31T10:01:40.957Z,5.10
2023-03-31T10:04:08.031Z,4.90
2023-03-31T10:06:35.015Z,4.53
2023-03-31T10:09:01.785Z,4.93
2023-03-31T10:11:28.509Z,5.75
2023-03-31T10:13:58.944Z,5.00
2023-03-31T10:16:26.094Z,4.78
2023-03-31T10:18:54.282Z,4.97
2023-03-31T10:21:23.228Z,4.75
2023-03-31T10:23:50.010Z,4.88
2023-03-31T10:26:16.807Z,5.00
2023-03-31T10:28:43.702Z,5.63
2023-03-31T10:31:11.448Z,5.38
2023-03-31T10:33:38.246Z,4.82
2023-03-31T10:36:05.189Z,3.95
2023-03-31T10:38:32.040Z,4.60
2023-03-31T10:40:58.866Z,4.75
2023-03-31T10:43:25.829Z,4.32
2023-03-31T10:45:52.581Z,4.30
2023-03-31T10:48:19.321Z,13.27
2023-03-31T10:50:46.251Z,4.50
2023-03-31T10:53:13.433Z,3.95
2023-03-31T10:55:40.197Z,3.47
2023-03-31T10:58:06.851Z,3.50
2023-03-31T11:00:34.084Z,2.88
2023-03-31T11:03:01.136Z,2.92
2023-03-31T11:05:28.119Z,3.30
2023-03-31T11:07:54.903Z,3.17
2023-03-31T11:10:21.649Z,2.75
2023-03-31T11:12:49.843Z,2.10
2023-03-31T11:15:16.900Z,2.45
2023-03-31T11:17:43.650Z,2.00
2023-03-31T11:20:11.157Z,1.75
2023-03-31T11:22:37.990Z,2.65
2023-03-31T11:25:05.664Z,1.60
2023-03-31T11:27:32.356Z,1.80
2023-03-31T11:29:59.153Z,1.45
2023-03-31T11:32:26.221Z,1.17
2023-03-31T11:34:53.195Z,1.17
2023-03-31T11:37:21.499Z,1.00
2023-03-31T11:39:48.217Z,0.93
2023-03-31T11:42:16.161Z,0.90
2023-03-31T11:44:43.694Z,0.60
2023-03-31T11:47:10.672Z,0.60
2023-03-31T11:49:38.974Z,0.68
2023-03-31T11:52:05.817Z,0.77
2023-03-31T11:54:32.573Z,0.70
2023-03-31T11:56:59.270Z,0.80
2023-03-31T11:59:29.961Z,0.70
2023-03-31T12:01:56.769Z,0.70
2023-03-31T12:04:23.708Z,0.63
2023-03-31T12:06:50.687Z,0.60
2023-03-31T12:09:17.477Z,0.70
2023-03-31T12:11:44.269Z,0.80
2023-03-31T12:14:10.995Z,0.73
2023-03-31T12:16:38.345Z,0.80
2023-03-31T12:19:06.029Z,0.88
2023-03-31T12:21:34.012Z,0.88
2023-03-31T12:24:00.709Z,0.85
2023-03-31T12:26:28.122Z,1.30
2023-03-31T12:28:54.776Z,0.80
2023-03-31T12:31:21.563Z,0.95
2023-03-31T12:33:48.375Z,0.80
2023-03-31T12:36:15.585Z,0.82
2023-03-31T12:38:42.353Z,0.98
2023-03-31T12:41:09.104Z,1.20
2023-03-31T12:43:35.762Z,0.82
2023-03-31T12:46:02.473Z,1.10
2023-03-31T12:48:29.346Z,0.90
2023-03-31T12:50:56.127Z,1.17
2023-03-31T12:53:22.860Z,1.25
2023-03-31T12:55:50.036Z,1.17
2023-03-31T12:58:16.996Z,0.90
2023-03-31T13:00:43.724Z,1.10
2023-03-31T13:03:10.479Z,1.10
2023-03-31T13:05:37.591Z,0.80
2023-03-31T13:08:04.407Z,0.88
2023-03-31T13:10:31.303Z,1.10
2023-03-31T13:12:58.068Z,1.05
2023-03-31T13:15:24.924Z,0.88
2023-03-31T13:17:51.653Z,1.13
2023-03-31T13:20:19.233Z,0.63
2023-03-31T13:22:46.212Z,0.88
2023-03-31T13:25:12.954Z,1.00
2023-03-31T13:27:39.739Z,0.95
2023-03-31T13:30:07.720Z,0.80
2023-03-31T13:32:34.436Z,0.90
2023-03-31T13:35:01.260Z,0.70
2023-03-31T13:37:27.928Z,0.88
2023-03-31T13:39:54.658Z,0.80
2023-03-31T13:42:21.664Z,0.90
2023-03-31T13:44:51.112Z,0.75
2023-03-31T13:47:17.877Z,0.93
2023-03-31T13:49:44.597Z,0.60
2023-03-31T13:52:11.349Z,0.55
2023-03-31T13:54:38.091Z,0.73
2023-03-31T13:57:04.797Z,0.63
2023-03-31T13:59:31.544Z,1.23
2023-03-31T14:01:58.402Z,0.70
2023-03-31T14:04:25.399Z,0.90
2023-03-31T14:06:52.145Z,0.88
2023-03-31T14:09:18.997Z,1.50
2023-03-31T14:11:45.675Z,0.77
2023-03-31T14:14:12.429Z,0.82
2023-03-31T14:16:39.210Z,0.82
2023-03-31T14:19:06.040Z,0.70
2023-03-31T14:21:32.748Z,1.20
2023-03-31T14:23:59.617Z,0.82
2023-03-31T14:26:26.838Z,0.80
2023-03-31T14:28:54.313Z,0.65
2023-03-31T14:31:21.585Z,0.90
2023-03-31T14:33:48.403Z,0.98
2023-03-31T14:36:16.008Z,1.67
2023-03-31T14:38:42.797Z,1.13
2023-03-31T14:41:09.644Z,0.90
2023-03-31T14:43:36.572Z,0.75
2023-03-31T14:46:03.381Z,0.50
2023-03-31T14:48:30.201Z,1.13
2023-03-31T14:50:57.381Z,0.70
2023-03-31T14:53:24.157Z,0.50
2023-03-31T14:55:58.768Z,0.40
2023-03-31T14:58:26.201Z,0.65
2023-03-31T15:00:52.914Z,0.65
2023-03-31T15:03:19.821Z,0.70
2023-03-31T15:05:48.987Z,0.70
2023-03-31T15:08:16.954Z,0.80
2023-03-31T15:10:44.551Z,0.90
2023-03-31T15:13:11.401Z,0.70
2023-03-31T15:15:38.185Z,0.63
2023-03-31T15:18:04.933Z,1.00
2023-03-31T15:20:31.832Z,0.70
2023-03-31T15:23:01.954Z,0.60
2023-03-31T15:25:29.008Z,0.70
2023-03-31T15:27:55.864Z,1.20
2023-03-31T15:30:22.518Z,0.73
2023-03-31T15:32:49.504Z,0.60
2023-03-31T15:37:47.850Z,0.50
2023-03-31T15:40:14.549Z,0.40
2023-03-31T15:42:43.026Z,0.65
2023-03-31T15:45:13.136Z,0.65
2023-03-31T15:47:39.898Z,0.40
2023-03-31T15:50:07.567Z,0.55
2023-03-31T15:52:34.366Z,0.90
2023-03-31T15:55:01.932Z,0.50
2023-03-31T15:57:28.765Z,0.90
2023-03-31T15:59:57.857Z,0.65
2023-03-31T16:02:24.787Z,0.70
2023-03-31T16:04:51.698Z,0.70
2023-03-31T16:07:18.440Z,0.75
2023-03-31T16:09:45.524Z,0.50
2023-03-31T16:12:12.231Z,0.40
2023-03-31T16:14:39.033Z,0.60
2023-03-31T16:17:05.763Z,0.60
2023-03-31T16:19:32.507Z,0.50
2023-03-31T16:21:59.683Z,0.80
2023-03-31T16:24:26.631Z,0.60
2023-03-31T16:26:53.433Z,0.60
2023-03-31T16:29:20.758Z,0.60
2023-03-31T16:31:47.521Z,0.90
2023-03-31T16:34:14.343Z,0.60
2023-03-31T16:36:41.133Z,0.60
2023-03-31T16:39:08.001Z,0.60
2023-03-31T16:41:34.748Z,0.98
2023-03-31T16:44:01.569Z,3.90
2023-03-31T16:46:28.298Z,2.60
2023-03-31T16:48:55.357Z,3.05
2023-03-31T16:51:22.110Z,2.00
2023-03-31T16:53:48.846Z,3.83
2023-03-31T16:56:15.777Z,3.00
2023-03-31T16:58:42.672Z,1.88
2023-03-31T17:01:09.439Z,1.58
2023-03-31T17:03:38.431Z,1.80
2023-03-31T17:06:05.756Z,1.50
2023-03-31T17:08:32.569Z,1.67
2023-03-31T17:10:59.271Z,1.50
2023-03-31T17:13:26.242Z,1.08
2023-03-31T17:18:40.495Z,1.50
2023-03-31T17:21:07.229Z,1.27
2023-03-31T17:23:34.229Z,1.13
2023-03-31T17:26:01.060Z,0.70
2023-03-31T17:28:28.585Z,0.90
2023-03-31T17:30:55.423Z,0.80
2023-03-31T17:33:22.630Z,0.85
2023-03-31T17:35:50.478Z,0.60
2023-03-31T17:38:19.411Z,0.70
2023-03-31T17:40:47.281Z,0.80
2023-03-31T17:43:14.169Z,0.90
2023-03-31T17:45:41.323Z,0.73
2023-03-31T17:48:09.929Z,0.93
2023-03-31T17:50:37.569Z,0.93
2023-03-31T17:53:09.078Z,0.85
2023-03-31T17:55:36.190Z,1.15
2023-03-31T17:58:03.517Z,1.10
2023-03-31T18:00:30.272Z,1.20
2023-03-31T18:02:57.073Z,0.90
2023-03-31T18:05:23.848Z,1.10
2023-03-31T18:07:51.938Z,0.98
2023-03-31T18:10:18.841Z,1.17
2023-03-31T18:12:46.807Z,1.02
2023-03-31T18:15:13.534Z,1.30
2023-03-31T18:17:40.371Z,1.20
2023-03-31T18:20:07.124Z,1.40
2023-03-31T18:22:33.854Z,1.00
2023-03-31T18:25:00.602Z,1.10
2023-03-31T18:27:27.389Z,1.17
2023-03-31T18:29:54.129Z,1.17
2023-03-31T18:32:21.356Z,1.48
2023-03-31T18:34:48.346Z,1.55
2023-03-31T18:37:15.140Z,1.60
2023-03-31T18:39:42.006Z,1.40
2023-03-31T18:42:09.213Z,1.90
2023-03-31T18:44:36.324Z,1.55
2023-03-31T18:47:03.127Z,2.05
2023-03-31T18:49:29.977Z,1.42
2023-03-31T18:51:58.655Z,1.58
2023-03-31T18:54:25.465Z,1.70
2023-03-31T18:56:52.309Z,1.50
2023-03-31T18:59:19.090Z,1.80
2023-03-31T19:01:46.129Z,1.67
2023-03-31T19:04:13.019Z,1.60
2023-03-31T19:06:39.700Z,1.20
2023-03-31T19:09:06.446Z,1.60
2023-03-31T19:11:33.165Z,1.63
2023-03-31T19:14:00.145Z,1.92
2023-03-31T19:16:27.592Z,1.40
2023-03-31T19:18:54.440Z,1.50
2023-03-31T19:21:21.184Z,1.92
2023-03-31T19:23:47.888Z,1.50
2023-03-31T19:26:15.661Z,1.80
2023-03-31T19:28:42.482Z,1.88
2023-03-31T19:31:09.189Z,2.30
2023-03-31T19:33:35.934Z,1.90
2023-03-31T19:36:02.817Z,2.08
2023-03-31T19:38:32.156Z,1.70
2023-03-31T19:41:00.177Z,2.50
2023-03-31T19:43:29.287Z,2.00
2023-03-31T19:45:58.007Z,2.25
2023-03-31T19:48:26.253Z,2.50
2023-03-31T19:50:52.975Z,2.20
2023-03-31T19:53:19.728Z,2.40
2023-03-31T19:55:46.608Z,2.03
2023-03-31T19:58:13.816Z,2.30
2023-03-31T20:00:40.592Z,2.05
2023-03-31T20:03:08.001Z,2.10
2023-03-31T20:05:34.888Z,2.13
2023-03-31T20:08:01.642Z,1.92
2023-03-31T20:10:28.411Z,2.10
2023-03-31T20:12:56.743Z,1.92
2023-03-31T20:15:25.134Z,2.00
2023-03-31T20:17:52.242Z,2.10
2023-03-31T20:20:19.037Z,2.60
2023-03-31T20:22:45.789Z,2.38
2023-03-31T20:25:12.547Z,2.40
2023-03-31T20:27:40.481Z,2.35
2023-03-31T20:30:09.145Z,2.17
2023-03-31T20:32:35.893Z,2.33
2023-03-31T20:35:02.705Z,2.40
2023-03-31T20:37:29.361Z,2.58
2023-03-31T20:39:56.700Z,2.70
2023-03-31T20:42:23.411Z,3.00
2023-03-31T20:44:50.434Z,3.08
2023-03-31T20:47:17.185Z,2.70
2023-03-31T20:49:43.975Z,2.63
2023-03-31T20:52:10.936Z,2.80
2023-03-31T20:54:38.184Z,2.47
2023-03-31T20:57:06.202Z,2.80
2023-03-31T20:59:33.204Z,2.70
2023-03-31T21:01:59.909Z,2.90
2023-03-31T21:04:26.681Z,2.80
2023-03-31T21:06:53.837Z,2.88
2023-03-31T21:09:20.673Z,2.72
2023-03-31T21:11:47.477Z,2.55
2023-03-31T21:14:14.253Z,2.40
2023-03-31T21:16:41.019Z,2.45
2023-03-31T21:19:07.767Z,2.38
2023-03-31T21:21:36.072Z,2.40
2023-03-31T21:24:02.860Z,2.35
2023-03-31T21:26:29.588Z,3.15
2023-03-31T21:28:56.578Z,3.13
2023-03-31T21:31:24.257Z,2.72
2023-03-31T21:33:51.656Z,3.10
2023-03-31T21:36:18.528Z,3.25
2023-03-31T21:38:45.705Z,4.10
2023-03-31T21:41:12.485Z,4.30
2023-03-31T21:43:39.215Z,4.50
2023-03-31T21:46:06.742Z,4.78
2023-03-31T21:48:33.861Z,4.97
2023-03-31T21:51:01.536Z,5.22
2023-03-31T21:53:28.756Z,5.80
2023-03-31T21:55:56.478Z,5.15
2023-03-31T21:58:23.624Z,5.07
2023-03-31T22:00:50.475Z,5.50
2023-03-31T22:05:49.513Z,6.10
2023-03-31T22:08:16.502Z,6.88
2023-03-31T22:10:43.629Z,6.88
2023-03-31T22:13:10.378Z,6.63
2023-03-31T22:15:37.246Z,6.97
2023-03-31T22:18:03.995Z,6.40
2023-03-31T22:20:30.738Z,6.47
2023-03-31T22:22:57.832Z,6.50
2023-03-31T22:25:24.604Z,6.88
2023-03-31T22:27:51.311Z,6.97
2023-03-31T22:30:18.095Z,7.18
2023-03-31T22:32:44.815Z,7.13
2023-03-31T22:35:15.922Z,7.88
2023-03-31T22:37:42.627Z,8.75
2023-03-31T22:40:09.324Z,9.40
2023-03-31T22:42:36.649Z,8.75
2023-03-31T22:45:03.419Z,9.55
2023-03-31T22:47:30.375Z,9.10
2023-03-31T22:49:57.114Z,10.00
2023-03-31T22:52:23.869Z,9.85
2023-03-31T22:54:51.029Z,11.10
2023-03-31T22:57:17.996Z,11.43
2023-03-31T22:59:44.764Z,11.35
2023-03-31T23:02:11.498Z,12.07
2023-03-31T23:04:38.224Z,11.70
2023-03-31T23:07:05.063Z,12.30
2023-03-31T23:09:31.923Z,11.45
2023-03-31T23:11:58.802Z,11.63
2023-03-31T23:14:25.503Z,11.65
2023-03-31T23:16:52.753Z,11.95
2023-03-31T23:19:19.701Z,11.40
2023-03-31T23:21:46.413Z,11.70
2023-03-31T23:24:13.210Z,11.32
2023-03-31T23:26:39.859Z,11.52
2023-03-31T23:29:06.729Z,11.68
2023-03-31T23:31:33.564Z,11.20
2023-03-31T23:34:00.424Z,10.90
2023-03-31T23:36:27.237Z,10.63
2023-03-31T23:38:54.046Z,10.38
2023-03-31T23:41:20.839Z,10.20
2023-03-31T23:43:47.527Z,10.43
2023-03-31T23:46:14.381Z,10.80
2023-03-31T23:48:41.286Z,11.38
2023-03-31T23:51:08.004Z,12.18
2023-03-31T23:53:34.770Z,11.73
2023-03-31T23:56:03.537Z,13.05
2023-03-31T23:58:30.281Z,12.55
